createdAt,value
2023-01-23T00:00:30.838Z,95685.63
2023-01-23T00:03:16.694Z,95700.94
2023-01-23T00:06:06.740Z,95704.47
2023-01-23T00:08:53.107Z,95697.06
2023-01-23T00:11:39.099Z,95691.69
2023-01-23T00:14:25.333Z,95694.84
2023-01-23T00:17:11.256Z,95678.31
2023-01-23T00:19:57.077Z,95666.03
2023-01-23T00:22:42.865Z,95674.78
2023-01-23T00:25:28.619Z,95657.38
2023-01-23T00:28:14.518Z,95669.94
2023-01-23T00:31:08.231Z,95635.84
2023-01-23T00:33:56.603Z,95636.28
2023-01-23T00:36:44.309Z,95641.00
2023-01-23T00:39:30.744Z,95643.94
2023-01-23T00:42:17.076Z,95670.72
2023-01-23T00:45:03.424Z,95664.09
2023-01-23T00:47:49.383Z,95659.09
2023-01-23T00:50:35.400Z,95655.41
2023-01-23T00:53:22.214Z,95665.16
2023-01-23T00:56:08.359Z,95658.63
2023-01-23T00:58:54.757Z,95647.03
2023-01-23T01:01:41.131Z,95656.56
2023-01-23T01:04:27.220Z,95636.13
2023-01-23T01:07:13.557Z,95635.22
2023-01-23T01:09:59.140Z,95651.66
2023-01-23T01:12:44.997Z,95643.88
2023-01-23T01:15:31.176Z,95621.91
2023-01-23T01:18:18.473Z,95655.25
2023-01-23T01:21:13.794Z,95653.59
2023-01-23T01:24:00.606Z,95654.28
2023-01-23T01:26:46.661Z,95671.19
2023-01-23T01:29:33.548Z,95658.22
2023-01-23T01:32:19.431Z,95659.16
2023-01-23T01:35:08.319Z,95653.53
2023-01-23T01:37:54.371Z,95654.06
2023-01-23T01:40:40.177Z,95647.41
2023-01-23T01:43:27.519Z,95658.63
2023-01-23T01:46:13.348Z,95641.28
2023-01-23T01:49:09.668Z,95667.38
2023-01-23T01:51:57.842Z,95660.84
2023-01-23T01:55:01.297Z,95659.03
2023-01-23T01:57:49.009Z,95646.28
2023-01-23T02:00:35.633Z,95641.28
2023-01-23T02:03:21.495Z,95627.56
2023-01-23T02:06:08.179Z,95651.56
2023-01-23T02:09:02.036Z,95659.41
2023-01-23T02:11:49.042Z,95651.84
2023-01-23T02:14:37.883Z,95650.81
2023-01-23T02:17:23.880Z,95637.91
2023-01-23T02:20:25.368Z,95650.03
2023-01-23T02:23:37.423Z,95656.34
2023-01-23T02:26:29.950Z,95662.69
2023-01-23T02:29:16.396Z,95649.44
2023-01-23T02:32:10.412Z,95641.94
2023-01-23T02:34:58.790Z,95628.75
2023-01-23T02:37:47.077Z,95644.38
2023-01-23T02:40:40.675Z,95650.56
2023-01-23T02:43:36.036Z,95660.59
2023-01-23T02:46:24.871Z,95642.66
2023-01-23T02:49:10.932Z,95656.41
2023-01-23T02:51:57.358Z,95654.03
2023-01-23T02:54:43.229Z,95637.25
2023-01-23T02:57:29.412Z,95645.56
2023-01-23T03:00:20.554Z,95651.47
2023-01-23T03:03:08.724Z,95627.19
2023-01-23T03:05:55.639Z,95640.84
2023-01-23T03:08:47.613Z,95633.19
2023-01-23T03:11:34.484Z,95634.72
2023-01-23T03:14:23.845Z,95628.47
2023-01-23T03:17:11.134Z,95619.69
2023-01-23T03:19:57.874Z,95616.94
2023-01-23T03:22:44.860Z,95644.53
2023-01-23T03:25:30.844Z,95628.00
2023-01-23T03:28:35.173Z,95638.44
2023-01-23T03:31:21.377Z,95638.16
2023-01-23T03:34:08.059Z,95631.88
2023-01-23T03:36:54.104Z,95646.66
2023-01-23T03:39:58.509Z,95631.25
2023-01-23T03:42:45.496Z,95628.69
2023-01-23T03:45:34.603Z,95639.66
2023-01-23T03:48:20.734Z,95648.34
2023-01-23T03:51:07.702Z,95617.16
2023-01-23T03:53:54.048Z,95641.09
2023-01-23T03:56:41.732Z,95615.16
2023-01-23T03:59:42.184Z,95609.63
2023-01-23T04:02:29.361Z,95600.22
2023-01-23T04:05:15.316Z,95613.66
2023-01-23T04:08:01.578Z,95597.22
2023-01-23T04:10:48.496Z,95582.56
2023-01-23T04:13:36.781Z,95602.91
2023-01-23T04:16:23.641Z,95605.84
2023-01-23T04:19:10.041Z,95591.06
2023-01-23T04:21:55.842Z,95608.06
2023-01-23T04:24:42.336Z,95592.81
2023-01-23T04:27:28.620Z,95616.81
2023-01-23T04:30:15.501Z,95616.25
2023-01-23T04:33:01.274Z,95605.84
2023-01-23T04:36:06.825Z,95613.72
2023-01-23T04:38:53.676Z,95633.53
2023-01-23T04:41:44.520Z,95633.97
2023-01-23T04:44:43.889Z,95648.94
2023-01-23T04:47:52.442Z,95647.56
2023-01-23T04:50:38.322Z,95642.81
2023-01-23T04:53:24.021Z,95623.31
2023-01-23T04:56:16.733Z,95653.84
2023-01-23T04:59:02.824Z,95644.31
2023-01-23T05:01:49.118Z,95652.22
2023-01-23T05:04:36.253Z,95669.59
2023-01-23T05:07:22.929Z,95649.09
2023-01-23T05:10:23.810Z,95669.06
2023-01-23T05:13:10.469Z,95658.41
2023-01-23T05:15:57.687Z,95649.25
2023-01-23T05:18:44.461Z,95649.69
2023-01-23T05:21:30.539Z,95664.38
2023-01-23T05:24:16.921Z,95663.38
2023-01-23T05:27:04.214Z,95644.38
2023-01-23T05:29:52.891Z,95651.78
2023-01-23T05:32:42.806Z,95661.69
2023-01-23T05:35:34.194Z,95687.63
2023-01-23T05:38:20.679Z,95677.78
2023-01-23T05:41:06.503Z,95682.50
2023-01-23T05:44:18.621Z,95668.47
2023-01-23T05:47:10.571Z,95692.78
2023-01-23T05:49:57.268Z,95687.66
2023-01-23T05:52:48.509Z,95676.81
2023-01-23T05:55:35.022Z,95676.94
2023-01-23T05:58:21.976Z,95648.78
2023-01-23T06:01:40.189Z,95686.78
2023-01-23T06:04:54.260Z,95685.13
2023-01-23T06:07:48.016Z,95687.41
2023-01-23T06:10:33.864Z,95691.38
2023-01-23T06:13:20.212Z,95695.06
2023-01-23T06:16:08.513Z,95696.72
2023-01-23T06:18:57.111Z,95704.31
2023-01-23T06:21:44.920Z,95691.56
2023-01-23T06:24:32.229Z,95691.03
2023-01-23T06:27:19.184Z,95719.25
2023-01-23T06:30:05.867Z,95714.00
2023-01-23T06:32:56.496Z,95708.47
2023-01-23T06:35:57.432Z,95683.06
2023-01-23T06:38:44.175Z,95711.47
2023-01-23T06:41:31.791Z,95726.59
2023-01-23T06:44:21.533Z,95721.56
2023-01-23T06:47:07.424Z,95724.34
2023-01-23T06:49:53.214Z,95718.94
2023-01-23T06:52:38.885Z,95723.41
2023-01-23T06:55:24.798Z,95719.25
2023-01-23T06:58:11.187Z,95734.50
2023-01-23T07:00:57.629Z,95732.50
2023-01-23T07:04:09.244Z,95729.88
2023-01-23T07:06:56.716Z,95741.41
2023-01-23T07:09:43.870Z,95740.78
2023-01-23T07:12:35.876Z,95731.56
2023-01-23T07:15:21.800Z,95727.19
2023-01-23T07:18:07.788Z,95706.38
2023-01-23T07:20:54.398Z,95725.38
2023-01-23T07:23:40.284Z,95718.06
2023-01-23T07:26:26.858Z,95731.53
2023-01-23T07:29:14.381Z,95732.59
2023-01-23T07:32:01.191Z,95759.28
2023-01-23T07:34:47.249Z,95759.28
2023-01-23T07:37:33.450Z,95753.34
2023-01-23T07:40:19.707Z,95757.31
2023-01-23T07:43:05.967Z,95762.88
2023-01-23T07:45:51.744Z,95764.09
2023-01-23T07:48:37.792Z,95753.47
2023-01-23T07:51:23.911Z,95756.09
2023-01-23T07:54:10.059Z,95773.63
2023-01-23T07:56:56.261Z,95782.59
2023-01-23T07:59:42.349Z,95766.31
2023-01-23T08:02:28.210Z,95776.47
2023-01-23T08:05:14.030Z,95777.13
2023-01-23T08:08:12.472Z,95761.53
2023-01-23T08:10:59.351Z,95782.66
2023-01-23T08:13:49.621Z,95788.47
2023-01-23T08:16:35.670Z,95797.34
2023-01-23T08:19:21.510Z,95806.16
2023-01-23T08:22:07.671Z,95798.75
2023-01-23T08:24:53.543Z,95796.91
2023-01-23T08:27:39.640Z,95796.91
2023-01-23T08:30:25.543Z,95795.59
2023-01-23T08:33:11.766Z,95808.28
2023-01-23T08:35:58.868Z,95808.50
2023-01-23T08:38:44.845Z,95798.69
2023-01-23T08:41:30.926Z,95785.97
2023-01-23T08:44:17.004Z,95796.78
2023-01-23T08:47:03.343Z,95792.50
2023-01-23T08:49:49.485Z,95793.59
2023-01-23T08:52:36.019Z,95788.03
2023-01-23T08:55:21.704Z,95803.53
2023-01-23T08:58:09.043Z,95808.91
2023-01-23T09:00:55.177Z,95797.81
2023-01-23T09:03:40.944Z,95804.72
2023-01-23T09:06:26.764Z,95780.13
2023-01-23T09:09:12.604Z,95810.00
2023-01-23T09:11:58.399Z,95827.19
2023-01-23T09:14:44.239Z,95801.63
2023-01-23T09:17:29.995Z,95820.28
2023-01-23T09:20:16.063Z,95811.28
2023-01-23T09:23:02.244Z,95814.97
2023-01-23T09:25:48.013Z,95811.28
2023-01-23T09:28:35.625Z,95810.34
2023-01-23T09:31:21.490Z,95798.25
2023-01-23T09:34:08.035Z,95800.78
2023-01-23T09:36:54.038Z,95801.81
2023-01-23T09:39:39.843Z,95813.63
2023-01-23T09:42:31.737Z,95797.25
2023-01-23T09:45:24.859Z,95816.63
2023-01-23T09:48:16.554Z,95806.47
2023-01-23T09:51:28.233Z,95824.13
2023-01-23T09:54:47.888Z,95826.53
2023-01-23T09:57:37.169Z,95811.69
2023-01-23T10:00:27.665Z,95823.94
2023-01-23T10:03:15.529Z,95820.84
2023-01-23T10:06:01.327Z,95817.56
2023-01-23T10:08:54.788Z,95808.03
2023-01-23T10:11:53.539Z,95797.88
2023-01-23T10:14:46.955Z,95810.28
2023-01-23T10:17:44.749Z,95795.59
2023-01-23T10:21:07.605Z,95817.75
2023-01-23T10:23:54.245Z,95811.53
2023-01-23T10:26:43.278Z,95799.97
2023-01-23T10:29:36.778Z,95797.81
2023-01-23T10:32:31.694Z,95779.91
2023-01-23T10:35:23.055Z,95795.63
2023-01-23T10:38:18.580Z,95814.88
2023-01-23T10:41:21.738Z,95813.34
2023-01-23T10:44:17.216Z,95809.00
2023-01-23T10:47:04.691Z,95794.03
2023-01-23T10:49:50.926Z,95806.88
2023-01-23T10:52:47.261Z,95803.69
2023-01-23T10:55:33.507Z,95801.38
2023-01-23T10:58:45.578Z,95820.47
2023-01-23T11:01:37.449Z,95801.94
2023-01-23T11:04:26.921Z,95815.13
2023-01-23T11:07:15.416Z,95821.78
2023-01-23T11:10:16.768Z,95819.16
2023-01-23T11:13:03.682Z,95812.44
2023-01-23T11:15:49.639Z,95796.00
2023-01-23T11:18:42.547Z,95803.88
2023-01-23T11:21:52.366Z,95828.97
2023-01-23T11:24:41.113Z,95824.72
2023-01-23T11:27:30.411Z,95823.06
2023-01-23T11:30:25.580Z,95819.00
2023-01-23T11:33:15.168Z,95811.78
2023-01-23T11:36:07.612Z,95808.84
2023-01-23T11:39:16.943Z,95827.63
2023-01-23T11:42:03.066Z,95824.00
2023-01-23T11:44:51.223Z,95822.16
2023-01-23T11:48:00.913Z,95818.00
2023-01-23T11:50:55.186Z,95817.97
2023-01-23T11:53:47.820Z,95822.28
2023-01-23T11:56:49.335Z,95830.19
2023-01-23T11:59:57.721Z,95810.53
2023-01-23T12:03:19.696Z,95811.84
2023-01-23T12:06:20.104Z,95828.78
2023-01-23T12:09:14.653Z,95823.88
2023-01-23T12:12:23.515Z,95828.59
2023-01-23T12:15:23.190Z,95835.81
2023-01-23T12:18:27.840Z,95838.13
2023-01-23T12:21:26.065Z,95820.34
2023-01-23T12:24:15.004Z,95848.16
2023-01-23T12:27:14.031Z,95844.06
2023-01-23T12:30:21.612Z,95843.97
2023-01-23T12:33:21.262Z,95850.41
2023-01-23T12:36:19.752Z,95854.66
2023-01-23T12:40:03.740Z,95857.28
2023-01-23T12:43:09.600Z,95846.38
2023-01-23T12:46:05.826Z,95858.66
2023-01-23T12:48:55.666Z,95869.47
2023-01-23T12:51:43.777Z,95871.88
2023-01-23T12:54:41.342Z,95871.88
2023-01-23T13:01:08.747Z,95886.88
2023-01-23T13:04:06.047Z,95855.75
2023-01-23T13:07:14.102Z,95894.00
2023-01-23T13:10:56.210Z,95913.22
2023-01-23T13:13:42.346Z,95927.47
2023-01-23T13:16:30.359Z,95910.75
2023-01-23T13:19:43.656Z,95927.59
2023-01-23T13:22:32.675Z,95927.31
2023-01-23T13:25:19.730Z,95943.56
2023-01-23T13:28:44.494Z,95943.50
2023-01-23T13:31:40.388Z,95949.94
2023-01-23T13:34:29.753Z,95963.34
2023-01-23T13:37:30.787Z,95961.44
2023-01-23T13:40:22.213Z,95958.28
2023-01-23T13:43:41.914Z,95965.97
2023-01-23T14:21:55.371Z,96019.84
2023-01-23T14:24:44.724Z,96049.09
2023-01-23T14:27:51.295Z,96041.75
2023-01-23T14:30:38.333Z,96049.63
2023-01-23T14:33:24.533Z,96057.81
2023-01-23T14:36:16.033Z,96059.19
2023-01-23T14:39:02.652Z,96061.44
2023-01-23T14:41:49.623Z,96068.81
2023-01-23T14:44:35.551Z,96074.00
2023-01-23T14:47:56.178Z,96065.78
2023-01-23T14:50:45.641Z,96084.44
2023-01-23T14:53:32.080Z,96071.72
2023-01-23T14:56:18.424Z,96079.13
2023-01-23T14:59:07.507Z,96087.69
2023-01-23T15:01:58.223Z,96087.03
2023-01-23T15:04:44.382Z,96067.03
2023-01-23T15:07:30.194Z,96101.44
2023-01-23T15:10:18.039Z,96093.94
2023-01-23T15:13:10.316Z,96094.00
2023-01-23T15:16:00.226Z,96102.88
2023-01-23T15:18:53.094Z,96106.75
2023-01-23T15:21:41.224Z,96087.59
2023-01-23T15:24:28.005Z,96102.09
2023-01-23T15:27:26.085Z,96091.13
2023-01-23T15:30:33.801Z,96111.19
2023-01-23T15:33:40.349Z,96105.41
2023-01-23T15:36:28.911Z,96099.88
2023-01-23T15:39:19.149Z,96107.94
2023-01-23T15:42:14.411Z,96118.25
2023-01-23T15:45:01.680Z,96137.69
2023-01-23T15:47:48.667Z,96108.59
2023-01-23T15:50:34.596Z,96120.53
2023-01-23T15:53:20.569Z,96125.88
2023-01-23T15:56:12.487Z,96121.56
2023-01-23T15:59:00.709Z,96127.88
2023-01-23T16:01:47.065Z,96130.09
2023-01-23T16:04:33.327Z,96134.28
2023-01-23T16:07:43.545Z,96137.16
2023-01-23T16:10:32.876Z,96141.16
2023-01-23T16:13:18.768Z,96145.19
2023-01-23T16:16:19.192Z,96129.72
2023-01-23T16:19:05.161Z,96129.88
2023-01-23T16:22:03.863Z,96143.41
2023-01-23T16:24:50.935Z,96133.75
2023-01-23T16:27:36.684Z,96133.94
2023-01-23T16:30:23.860Z,96159.97
2023-01-23T16:33:09.926Z,96140.25
2023-01-23T16:35:56.079Z,96160.16
2023-01-23T16:38:45.522Z,96172.03
2023-01-23T16:41:31.857Z,96174.91
2023-01-23T16:44:19.009Z,96176.75
2023-01-23T16:47:05.260Z,96161.22
2023-01-23T16:49:52.937Z,96180.41
2023-01-23T16:52:39.966Z,96192.13
2023-01-23T16:55:30.438Z,96196.81
2023-01-23T16:58:19.643Z,96200.31
2023-01-23T17:01:14.691Z,96189.63
2023-01-23T17:04:03.075Z,96188.78
2023-01-23T17:06:49.476Z,96197.84
2023-01-23T17:09:35.223Z,96192.13
2023-01-23T17:12:24.314Z,96195.31
2023-01-23T17:15:29.933Z,96201.84
2023-01-23T17:18:25.127Z,96210.53
2023-01-23T17:21:17.562Z,96211.72
2023-01-23T17:24:03.960Z,96223.59
2023-01-23T17:26:59.576Z,96205.38
2023-01-23T17:29:45.758Z,96207.88
2023-01-23T17:32:35.431Z,96214.56
2023-01-23T17:35:29.225Z,96186.19
2023-01-23T17:38:23.539Z,96198.22
2023-01-23T17:41:14.327Z,96194.53
2023-01-23T17:44:00.584Z,96212.41
2023-01-23T17:46:47.280Z,96201.72
2023-01-23T17:49:33.593Z,96196.38
2023-01-23T17:52:21.840Z,96211.41
2023-01-23T17:55:14.074Z,96211.06
2023-01-23T17:58:00.939Z,96213.75
2023-01-23T18:00:49.436Z,96204.38
2023-01-23T18:03:35.685Z,96206.22
2023-01-23T18:06:21.831Z,96203.88
2023-01-23T18:09:07.937Z,96200.88
2023-01-23T18:11:54.632Z,96199.03
2023-01-23T18:14:47.602Z,96194.38
2023-01-23T18:17:37.859Z,96213.78
2023-01-23T18:20:24.107Z,96214.09
2023-01-23T18:23:14.462Z,96206.22
2023-01-23T18:26:22.276Z,96216.28
2023-01-23T18:29:33.459Z,96220.09
2023-01-23T18:32:37.882Z,96216.09
2023-01-23T18:35:53.901Z,96212.91
2023-01-23T18:39:01.313Z,96198.19
2023-01-23T18:42:11.694Z,96210.88
2023-01-23T18:45:11.672Z,96224.47
2023-01-23T18:47:57.981Z,96225.31
2023-01-23T18:51:08.483Z,96229.66
2023-01-23T18:54:03.966Z,96210.56
2023-01-23T18:57:14.686Z,96234.31
2023-01-23T19:00:20.232Z,96243.34
2023-01-23T19:03:17.489Z,96236.28
2023-01-23T19:06:12.943Z,96225.59
2023-01-23T19:08:59.396Z,96243.66
2023-01-23T19:11:50.146Z,96238.31
2023-01-23T19:15:13.804Z,96218.25
2023-01-23T19:18:21.968Z,96234.63
2023-01-23T19:21:16.935Z,96223.59
2023-01-23T19:24:06.942Z,96242.00
2023-01-23T19:26:54.408Z,96232.97
2023-01-23T19:29:40.735Z,96243.47
2023-01-23T19:32:27.213Z,96238.97
2023-01-23T19:35:26.882Z,96246.31
2023-01-23T19:38:12.762Z,96245.13
2023-01-23T19:40:59.001Z,96243.66
2023-01-23T19:43:45.686Z,96239.97
2023-01-23T19:46:35.343Z,96245.13
2023-01-23T19:49:21.478Z,96218.25
2023-01-23T19:52:10.187Z,96237.13
2023-01-23T19:54:56.089Z,96231.94
2023-01-23T19:57:42.074Z,96240.63
2023-01-23T20:00:31.294Z,96241.13
2023-01-23T20:03:17.351Z,96234.63
2023-01-23T20:06:03.350Z,96244.16
2023-01-23T20:08:49.183Z,96241.63
2023-01-23T20:11:37.818Z,96224.41
2023-01-23T20:14:25.159Z,96244.47
2023-01-23T20:17:11.320Z,96232.94
2023-01-23T20:19:57.226Z,96242.97
2023-01-23T20:22:43.949Z,96228.59
2023-01-23T20:25:30.199Z,96240.63
2023-01-23T20:28:16.541Z,96251.31
2023-01-23T20:31:07.530Z,96254.31
2023-01-23T20:33:54.277Z,96258.50
2023-01-23T20:36:40.510Z,96255.31
2023-01-23T20:39:26.263Z,96266.66
2023-01-23T20:42:12.286Z,96261.69
2023-01-23T20:44:58.130Z,96263.16
2023-01-23T20:47:44.126Z,96266.53
2023-01-23T20:50:29.985Z,96255.97
2023-01-23T20:53:31.480Z,96271.19
2023-01-23T20:56:19.920Z,96269.84
2023-01-23T20:59:24.029Z,96279.69
2023-01-23T21:02:23.666Z,96276.53
2023-01-23T21:05:09.861Z,96282.06
2023-01-23T21:07:56.466Z,96284.56
2023-01-23T21:10:45.607Z,96272.03
2023-01-23T21:13:31.622Z,96275.38
2023-01-23T21:16:20.306Z,96270.03
2023-01-23T21:19:07.127Z,96288.41
2023-01-23T21:21:53.246Z,96291.72
2023-01-23T21:24:39.615Z,96291.94
2023-01-23T21:27:26.155Z,96284.72
2023-01-23T21:30:12.256Z,96279.72
2023-01-23T21:32:58.852Z,96286.59
2023-01-23T21:35:52.751Z,96285.88
2023-01-23T21:38:39.365Z,96295.59
2023-01-23T21:41:25.213Z,96288.41
2023-01-23T21:44:11.556Z,96296.91
2023-01-23T21:46:57.436Z,96302.09
2023-01-23T21:49:43.594Z,96289.56
2023-01-23T21:52:30.446Z,96292.22
2023-01-23T21:55:16.787Z,96281.19
2023-01-23T21:58:02.667Z,96265.00
2023-01-23T22:01:07.421Z,96287.56
2023-01-23T22:03:53.776Z,96285.72
2023-01-23T22:06:42.508Z,96275.84
2023-01-23T22:09:28.420Z,96281.72
2023-01-23T22:12:14.261Z,96277.84
2023-01-23T22:14:59.998Z,96259.31
2023-01-23T22:17:46.101Z,96254.31
2023-01-23T22:20:32.295Z,96271.53
2023-01-23T22:23:17.971Z,96275.53
2023-01-23T22:26:07.959Z,96273.19
2023-01-23T22:28:54.110Z,96287.22
2023-01-23T22:31:40.003Z,96282.88
2023-01-23T22:34:26.139Z,96282.06
2023-01-23T22:37:12.036Z,96264.00
2023-01-23T22:39:57.984Z,96282.06
2023-01-23T22:42:44.129Z,96279.91
2023-01-23T22:45:29.822Z,96287.03
2023-01-23T22:48:15.718Z,96285.03
2023-01-23T22:51:03.418Z,96264.97
2023-01-23T22:53:49.617Z,96277.19
2023-01-23T22:56:35.825Z,96283.69
2023-01-23T22:59:22.013Z,96276.81
2023-01-23T23:02:08.133Z,96281.50
2023-01-23T23:04:54.220Z,96271.63
2023-01-23T23:07:40.677Z,96273.78
2023-01-23T23:10:26.614Z,96274.81
2023-01-23T23:13:12.540Z,96277.13
2023-01-23T23:16:01.907Z,96263.59
2023-01-23T23:18:49.822Z,96256.38
2023-01-23T23:21:37.101Z,96266.91
2023-01-23T23:24:23.367Z,96265.72
2023-01-23T23:27:09.328Z,96268.91
2023-01-23T23:29:55.315Z,96268.91
2023-01-23T23:32:41.155Z,96260.22
2023-01-23T23:35:26.984Z,96254.16
2023-01-23T23:38:12.749Z,96242.16
2023-01-23T23:41:01.433Z,96284.75
2023-01-23T23:43:47.562Z,96286.53
2023-01-23T23:46:33.526Z,96287.03
2023-01-23T23:49:19.318Z,96258.97
2023-01-23T23:52:05.286Z,96259.47
2023-01-23T23:54:51.166Z,96286.84
2023-01-23T23:57:36.844Z,96280.16
